sensor_id;sensor_type;location;lat;lon;timestamp;pressure;altitude;pressure_sealevel;temperature;humidity
51297;BME280;37380;45.186;9.792;2023-09-18T00:02:08;101215.44;;;22.14;100.00
51297;BME280;37380;45.186;9.792;2023-09-18T00:05:09;101241.06;;;22.40;100.00
51297;BME280;37380;45.186;9.792;2023-09-18T00:08:03;101201.09;;;22.43;100.00
51297;BME280;37380;45.186;9.792;2023-09-18T00:10:30;101215.31;;;22.45;100.00
51297;BME280;37380;45.186;9.792;2023-09-18T00:12:58;101211.75;;;22.43;100.00
51297;BME280;37380;45.186;9.792;2023-09-18T00:15:25;101181.53;;;22.50;100.00
51297;BME280;37380;45.186;9.792;2023-09-18T00:17:52;101200.97;;;22.64;100.00
51297;BME280;37380;45.186;9.792;2023-09-18T00:20:19;101192.09;;;22.64;100.00
51297;BME280;37380;45.186;9.792;2023-09-18T00:22:46;101185.09;;;22.50;100.00
51297;BME280;37380;45.186;9.792;2023-09-18T00:25:14;101202.81;;;22.56;100.00
51297;BME280;37380;45.186;9.792;2023-09-18T00:27:42;101217.66;;;22.91;100.00
51297;BME280;37380;45.186;9.792;2023-09-18T00:30:09;101181.31;;;22.83;100.00
51297;BME280;37380;45.186;9.792;2023-09-18T00:32:36;101194.53;;;22.93;100.00
51297;BME280;37380;45.186;9.792;2023-09-18T00:35:04;101206.09;;;22.90;100.00
51297;BME280;37380;45.186;9.792;2023-09-18T00:37:31;101195.78;;;22.46;100.00
51297;BME280;37380;45.186;9.792;2023-09-18T00:39:59;101194.03;;;22.42;100.00
51297;BME280;37380;45.186;9.792;2023-09-18T00:42:26;101172.75;;;22.38;100.00
51297;BME280;37380;45.186;9.792;2023-09-18T00:44:54;101199.31;;;22.48;100.00
51297;BME280;37380;45.186;9.792;2023-09-18T00:47:22;101119.69;;;22.02;100.00
51297;BME280;37380;45.186;9.792;2023-09-18T00:49:51;101203.94;;;22.20;100.00
51297;BME280;37380;45.186;9.792;2023-09-18T00:52:21;101199.47;;;22.19;100.00
51297;BME280;37380;45.186;9.792;2023-09-18T00:54:50;101172.94;;;21.99;100.00
51297;BME280;37380;45.186;9.792;2023-09-18T00:57:25;101171.09;;;22.11;100.00
51297;BME280;37380;45.186;9.792;2023-09-18T01:00:26;101185.31;;;22.06;100.00
51297;BME280;37380;45.186;9.792;2023-09-18T01:03:27;101201.19;;;22.27;100.00
51297;BME280;37380;45.186;9.792;2023-09-18T01:06:21;101195.03;;;22.14;100.00
51297;BME280;37380;45.186;9.792;2023-09-18T01:08:48;101088.00;;;21.62;100.00
51297;BME280;37380;45.186;9.792;2023-09-18T01:11:42;101134.00;;;21.82;100.00
51297;BME280;37380;45.186;9.792;2023-09-18T01:14:19;101186.19;;;22.05;100.00
51297;BME280;37380;45.186;9.792;2023-09-18T01:16:53;101194.28;;;21.80;100.00
51297;BME280;37380;45.186;9.792;2023-09-18T01:19:37;101191.63;;;21.86;100.00
51297;BME280;37380;45.186;9.792;2023-09-18T01:25:06;101146.28;;;22.05;100.00
51297;BME280;37380;45.186;9.792;2023-09-18T01:27:33;101150.72;;;22.04;100.00
51297;BME280;37380;45.186;9.792;2023-09-18T01:30:01;101122.50;;;21.82;100.00
51297;BME280;37380;45.186;9.792;2023-09-18T01:32:31;101164.84;;;22.15;100.00
51297;BME280;37380;45.186;9.792;2023-09-18T01:35:01;101116.19;;;21.95;100.00
51297;BME280;37380;45.186;9.792;2023-09-18T01:37:31;101110.03;;;21.88;100.00
51297;BME280;37380;45.186;9.792;2023-09-18T01:39:59;101134.81;;;21.95;100.00
51297;BME280;37380;45.186;9.792;2023-09-18T01:42:28;101176.38;;;22.22;100.00
51297;BME280;37380;45.186;9.792;2023-09-18T01:44:55;101133.91;;;21.98;100.00
51297;BME280;37380;45.186;9.792;2023-09-18T01:47:22;101160.56;;;21.88;100.00
51297;BME280;37380;45.186;9.792;2023-09-18T01:49:56;101143.72;;;21.91;100.00
51297;BME280;37380;45.186;9.792;2023-09-18T01:52:23;101124.22;;;21.84;100.00
51297;BME280;37380;45.186;9.792;2023-09-18T01:54:50;101108.22;;;21.92;100.00
51297;BME280;37380;45.186;9.792;2023-09-18T01:57:24;101152.44;;;22.25;100.00
51297;BME280;37380;45.186;9.792;2023-09-18T02:00:25;101104.63;;;22.04;100.00
51297;BME280;37380;45.186;9.792;2023-09-18T02:03:20;101099.19;;;22.22;100.00
51297;BME280;37380;45.186;9.792;2023-09-18T02:06:28;101082.13;;;22.48;100.00
51297;BME280;37380;45.186;9.792;2023-09-18T02:08:56;101080.38;;;22.45;100.00
51297;BME280;37380;45.186;9.792;2023-09-18T02:11:23;101079.56;;;22.40;100.00
51297;BME280;37380;45.186;9.792;2023-09-18T02:13:51;101048.75;;;22.01;100.00
51297;BME280;37380;45.186;9.792;2023-09-18T02:16:18;101084.16;;;22.17;100.00
51297;BME280;37380;45.186;9.792;2023-09-18T02:18:48;101109.84;;;22.16;100.00
51297;BME280;37380;45.186;9.792;2023-09-18T02:21:21;101078.06;;;21.99;100.00
51297;BME280;37380;45.186;9.792;2023-09-18T02:23:52;101105.44;;;22.18;100.00
51297;BME280;37380;45.186;9.792;2023-09-18T02:26:19;101084.19;;;22.09;100.00
51297;BME280;37380;45.186;9.792;2023-09-18T02:28:47;101075.34;;;22.05;100.00
51297;BME280;37380;45.186;9.792;2023-09-18T02:31:14;101053.38;;;21.71;100.00
51297;BME280;37380;45.186;9.792;2023-09-18T02:33:42;101070.13;;;21.88;100.00
51297;BME280;37380;45.186;9.792;2023-09-18T02:36:11;101043.56;;;21.82;100.00
51297;BME280;37380;45.186;9.792;2023-09-18T02:38:38;101040.09;;;21.71;100.00
51297;BME280;37380;45.186;9.792;2023-09-18T02:41:05;101057.84;;;21.67;100.00
51297;BME280;37380;45.186;9.792;2023-09-18T02:43:32;101076.53;;;21.51;100.00
51297;BME280;37380;45.186;9.792;2023-09-18T02:46:00;101095.06;;;21.70;100.00
51297;BME280;37380;45.186;9.792;2023-09-18T02:48:27;101070.25;;;21.61;100.00
51297;BME280;37380;45.186;9.792;2023-09-18T02:50:54;101089.69;;;21.80;100.00
51297;BME280;37380;45.186;9.792;2023-09-18T02:53:24;101098.63;;;21.62;100.00
51297;BME280;37380;45.186;9.792;2023-09-18T02:55:54;101099.59;;;21.47;100.00
51297;BME280;37380;45.186;9.792;2023-09-18T02:58:28;101092.44;;;21.55;100.00
51297;BME280;37380;45.186;9.792;2023-09-18T03:01:29;101066.81;;;21.28;100.00
51297;BME280;37380;45.186;9.792;2023-09-18T03:04:31;101100.44;;;21.57;100.00
51297;BME280;37380;45.186;9.792;2023-09-18T03:07:32;101062.28;;;21.61;100.00
51297;BME280;37380;45.186;9.792;2023-09-18T03:10:27;101071.13;;;21.70;100.00
51297;BME280;37380;45.186;9.792;2023-09-18T03:12:54;101100.25;;;21.92;100.00
51297;BME280;37380;45.186;9.792;2023-09-18T03:15:22;101104.75;;;21.82;100.00
51297;BME280;37380;45.186;9.792;2023-09-18T03:17:53;101042.91;;;21.30;100.00
51297;BME280;37380;45.186;9.792;2023-09-18T03:20:27;101093.38;;;21.34;100.00
51297;BME280;37380;45.186;9.792;2023-09-18T03:23:01;101134.16;;;21.41;100.00
51297;BME280;37380;45.186;9.792;2023-09-18T03:25:29;101136.81;;;21.42;100.00
51297;BME280;37380;45.186;9.792;2023-09-18T03:28:15;101116.47;;;21.38;100.00
51297;BME280;37380;45.186;9.792;2023-09-18T03:30:42;101108.44;;;21.34;100.00
51297;BME280;37380;45.186;9.792;2023-09-18T03:33:09;101114.66;;;21.40;100.00
51297;BME280;37380;45.186;9.792;2023-09-18T03:35:49;101097.84;;;21.35;100.00
51297;BME280;37380;45.186;9.792;2023-09-18T03:38:21;101057.06;;;21.32;100.00
51297;BME280;37380;45.186;9.792;2023-09-18T03:40:49;101088.09;;;21.42;100.00
51297;BME280;37380;45.186;9.792;2023-09-18T03:43:17;101087.19;;;21.43;100.00
51297;BME280;37380;45.186;9.792;2023-09-18T03:45:47;101079.19;;;21.47;100.00
51297;BME280;37380;45.186;9.792;2023-09-18T03:48:15;101104.03;;;21.39;100.00
51297;BME280;37380;45.186;9.792;2023-09-18T03:50:43;101107.56;;;21.45;100.00
51297;BME280;37380;45.186;9.792;2023-09-18T03:53:10;101097.81;;;21.40;100.00
51297;BME280;37380;45.186;9.792;2023-09-18T03:55:38;101035.91;;;21.02;100.00
51297;BME280;37380;45.186;9.792;2023-09-18T03:58:12;101090.75;;;21.20;100.00
51297;BME280;37380;45.186;9.792;2023-09-18T04:01:13;101097.00;;;21.09;100.00
51297;BME280;37380;45.186;9.792;2023-09-18T04:04:14;101078.41;;;21.07;100.00
51297;BME280;37380;45.186;9.792;2023-09-18T04:07:09;101118.22;;;21.33;100.00
51297;BME280;37380;45.186;9.792;2023-09-18T04:09:36;101089.84;;;21.34;100.00
51297;BME280;37380;45.186;9.792;2023-09-18T04:12:04;101104.03;;;21.31;100.00
51297;BME280;37380;45.186;9.792;2023-09-18T04:14:33;101127.06;;;21.32;100.00
51297;BME280;37380;45.186;9.792;2023-09-18T04:17:00;101104.09;;;21.13;100.00
51297;BME280;37380;45.186;9.792;2023-09-18T04:19:28;101126.22;;;21.24;100.00
51297;BME280;37380;45.186;9.792;2023-09-18T04:21:56;101093.47;;;21.03;100.00
51297;BME280;37380;45.186;9.792;2023-09-18T04:24:23;101104.09;;;21.13;100.00
51297;BME280;37380;45.186;9.792;2023-09-18T04:26:51;101080.22;;;20.85;100.00
51297;BME280;37380;45.186;9.792;2023-09-18T04:29:19;101117.34;;;21.11;100.00
51297;BME280;37380;45.186;9.792;2023-09-18T04:31:48;101035.97;;;20.52;100.00
51297;BME280;37380;45.186;9.792;2023-09-18T04:34:15;101081.13;;;20.78;100.00
51297;BME280;37380;45.186;9.792;2023-09-18T04:36:43;101040.41;;;20.73;100.00
51297;BME280;37380;45.186;9.792;2023-09-18T04:39:11;101083.75;;;20.93;100.00
51297;BME280;37380;45.186;9.792;2023-09-18T04:41:38;101103.13;;;21.29;100.00
51297;BME280;37380;45.186;9.792;2023-09-18T04:44:06;100974.88;;;20.84;100.00
51297;BME280;37380;45.186;9.792;2023-09-18T04:46:35;101090.69;;;21.54;100.00
51297;BME280;37380;45.186;9.792;2023-09-18T04:49:02;101065.03;;;21.33;100.00
51297;BME280;37380;45.186;9.792;2023-09-18T04:51:33;101066.88;;;21.23;100.00
51297;BME280;37380;45.186;9.792;2023-09-18T04:54:00;101106.69;;;21.33;100.00
51297;BME280;37380;45.186;9.792;2023-09-18T04:56:29;101001.47;;;20.72;100.00
51297;BME280;37380;45.186;9.792;2023-09-18T04:59:03;101065.16;;;21.01;100.00
51297;BME280;37380;45.186;9.792;2023-09-18T05:02:04;101087.25;;;21.18;100.00
51297;BME280;37380;45.186;9.792;2023-09-18T05:05:06;101104.91;;;21.29;100.00
51297;BME280;37380;45.186;9.792;2023-09-18T05:07:54;101114.66;;;21.40;100.00
51297;BME280;37380;45.186;9.792;2023-09-18T05:10:21;101037.66;;;21.16;100.00
51297;BME280;37380;45.186;9.792;2023-09-18T05:12:48;101043.88;;;21.15;100.00
51297;BME280;37380;45.186;9.792;2023-09-18T05:15:17;101086.31;;;21.42;100.00
51297;BME280;37380;45.186;9.792;2023-09-18T05:17:51;101111.97;;;21.46;100.00
51297;BME280;37380;45.186;9.792;2023-09-18T05:20:52;101094.28;;;21.41;100.00
51297;BME280;37380;45.186;9.792;2023-09-18T05:23:46;101086.34;;;21.27;100.00
51297;BME280;37380;45.186;9.792;2023-09-18T05:26:13;101110.22;;;21.35;100.00
51297;BME280;37380;45.186;9.792;2023-09-18T05:28:40;101073.03;;;21.33;100.00
51297;BME280;37380;45.186;9.792;2023-09-18T05:31:07;101079.25;;;21.20;100.00
51297;BME280;37380;45.186;9.792;2023-09-18T05:33:35;101089.91;;;21.21;100.00
51297;BME280;37380;45.186;9.792;2023-09-18T05:36:02;101115.50;;;21.59;100.00
51297;BME280;37380;45.186;9.792;2023-09-18T05:38:30;101076.56;;;21.34;100.00
51297;BME280;37380;45.186;9.792;2023-09-18T05:41:01;101121.69;;;21.64;100.00
51297;BME280;37380;45.186;9.792;2023-09-18T05:43:29;101117.19;;;21.73;100.00
51297;BME280;37380;45.186;9.792;2023-09-18T05:45:57;101123.28;;;21.95;100.00
51297;BME280;37380;45.186;9.792;2023-09-18T05:48:25;101020.78;;;21.28;100.00
51297;BME280;37380;45.186;9.792;2023-09-18T05:50:52;101124.25;;;21.83;100.00
51297;BME280;37380;45.186;9.792;2023-09-18T05:53:21;101116.22;;;21.93;100.00
51297;BME280;37380;45.186;9.792;2023-09-18T05:55:48;101006.59;;;21.27;100.00
51297;BME280;37380;45.186;9.792;2023-09-18T05:58:22;101094.00;;;22.01;100.00
51297;BME280;37380;45.186;9.792;2023-09-18T06:01:25;101021.63;;;21.40;100.00
51297;BME280;37380;45.186;9.792;2023-09-18T06:04:26;101002.22;;;21.14;100.00
51297;BME280;37380;45.186;9.792;2023-09-18T06:07:30;101023.47;;;21.15;100.00
51297;BME280;37380;45.186;9.792;2023-09-18T06:10:24;100995.16;;;21.13;100.00
51297;BME280;37380;45.186;9.792;2023-09-18T06:12:51;100926.25;;;20.68;100.00
51297;BME280;37380;45.186;9.792;2023-09-18T06:15:19;100955.38;;;20.88;100.00
51297;BME280;37380;45.186;9.792;2023-09-18T06:17:46;100946.50;;;20.95;100.00
51297;BME280;37380;45.186;9.792;2023-09-18T06:20:13;100958.81;;;21.21;100.00
51297;BME280;37380;45.186;9.792;2023-09-18T06:22:41;100891.66;;;20.82;100.00
51297;BME280;37380;45.186;9.792;2023-09-18T06:25:09;100976.44;;;21.37;100.00
51297;BME280;37380;45.186;9.792;2023-09-18T06:27:40;101002.84;;;21.71;100.00
51297;BME280;37380;45.186;9.792;2023-09-18T06:30:07;101030.16;;;21.96;100.00
51297;BME280;37380;45.186;9.792;2023-09-18T06:32:35;100931.94;;;21.68;100.00
51297;BME280;37380;45.186;9.792;2023-09-18T06:35:04;101038.56;;;22.56;100.00
51297;BME280;37380;45.186;9.792;2023-09-18T06:37:32;101013.06;;;23.17;100.00
51297;BME280;37380;45.186;9.792;2023-09-18T06:39:59;100981.22;;;23.07;100.00
51297;BME280;37380;45.186;9.792;2023-09-18T06:42:28;101008.06;;;23.62;100.00
51297;BME280;37380;45.186;9.792;2023-09-18T06:44:58;100975.47;;;23.99;100.00
51297;BME280;37380;45.186;9.792;2023-09-18T06:47:26;100972.53;;;23.57;100.00
51297;BME280;37380;45.186;9.792;2023-09-18T06:49:53;100963.69;;;23.55;100.00
51297;BME280;37380;45.186;9.792;2023-09-18T06:52:20;100955.72;;;23.54;100.00
51297;BME280;37380;45.186;9.792;2023-09-18T06:54:48;100944.13;;;23.53;100.00
51297;BME280;37380;45.186;9.792;2023-09-18T06:57:15;100997.19;;;23.78;100.00
51297;BME280;37380;45.186;9.792;2023-09-18T06:59:42;100982.72;;;23.29;100.00
51297;BME280;37380;45.186;9.792;2023-09-18T07:02:16;100979.72;;;23.52;100.00
51297;BME280;37380;45.186;9.792;2023-09-18T07:05:17;100994.50;;;23.13;100.00
51297;BME280;37380;45.186;9.792;2023-09-18T07:08:11;100939.09;;;22.64;100.00
51297;BME280;37380;45.186;9.792;2023-09-18T07:10:46;100908.63;;;22.03;100.00
51297;BME280;37380;45.186;9.792;2023-09-18T07:13:40;100945.66;;;22.29;100.00
51297;BME280;37380;45.186;9.792;2023-09-18T07:16:07;100887.44;;;21.90;100.00
51297;BME280;37380;45.186;9.792;2023-09-18T07:18:41;100949.31;;;22.14;100.00
51297;BME280;37380;45.186;9.792;2023-09-18T07:21:42;100935.84;;;22.32;100.00
51297;BME280;37380;45.186;9.792;2023-09-18T07:24:17;100941.97;;;22.44;100.00
51297;BME280;37380;45.186;9.792;2023-09-18T07:26:51;100960.31;;;22.68;100.00
51297;BME280;37380;45.186;9.792;2023-09-18T07:29:55;100959.38;;;22.74;100.00
51297;BME280;37380;45.186;9.792;2023-09-18T07:32:40;100984.19;;;22.79;100.00
51297;BME280;37380;45.186;9.792;2023-09-18T07:35:14;100906.41;;;22.48;100.00
51297;BME280;37380;45.186;9.792;2023-09-18T07:38:09;100915.97;;;22.66;100.00
51297;BME280;37380;45.186;9.792;2023-09-18T07:41:03;100930.66;;;23.00;100.00
51297;BME280;37380;45.186;9.792;2023-09-18T07:43:31;100956.44;;;23.63;100.00
51297;BME280;37380;45.186;9.792;2023-09-18T07:45:58;100983.72;;;23.85;100.00
51297;BME280;37380;45.186;9.792;2023-09-18T07:48:27;100923.56;;;22.99;100.00
51297;BME280;37380;45.186;9.792;2023-09-18T07:50:54;100969.50;;;23.21;100.00
51297;BME280;37380;45.186;9.792;2023-09-18T07:53:22;100923.84;;;22.76;100.00
51297;BME280;37380;45.186;9.792;2023-09-18T07:55:55;100910.31;;;22.93;100.00
51297;BME280;37380;45.186;9.792;2023-09-18T07:58:25;100933.59;;;22.74;100.00
51297;BME280;37380;45.186;9.792;2023-09-18T08:00:55;100937.19;;;22.72;100.00
51297;BME280;37380;45.186;9.792;2023-09-18T08:03:30;100973.44;;;22.87;100.00
51297;BME280;37380;45.186;9.792;2023-09-18T08:06:24;100961.47;;;23.23;100.00
51297;BME280;37380;45.186;9.792;2023-09-18T08:08:53;100956.34;;;23.72;100.00
51297;BME280;37380;45.186;9.792;2023-09-18T08:11:20;100948.56;;;24.11;100.00
51297;BME280;37380;45.186;9.792;2023-09-18T08:13:47;100945.81;;;23.60;100.00
51297;BME280;37380;45.186;9.792;2023-09-18T08:16:15;100985.34;;;24.48;100.00
51297;BME280;37380;45.186;9.792;2023-09-18T08:18:42;100929.75;;;24.21;100.00
51297;BME280;37380;45.186;9.792;2023-09-18T08:21:09;100976.81;;;24.25;100.00
51297;BME280;37380;45.186;9.792;2023-09-18T08:23:37;100989.63;;;24.58;100.00
51297;BME280;37380;45.186;9.792;2023-09-18T08:26:11;100892.31;;;23.69;100.00
51297;BME280;37380;45.186;9.792;2023-09-18T08:29:12;100936.44;;;24.45;100.00
51297;BME280;37380;45.186;9.792;2023-09-18T08:32:06;100964.63;;;25.04;100.00
51297;BME280;37380;45.186;9.792;2023-09-18T08:34:34;100924.78;;;24.92;100.00
51297;BME280;37380;45.186;9.792;2023-09-18T08:37:07;100886.44;;;24.51;100.00
51297;BME280;37380;45.186;9.792;2023-09-18T08:40:01;100921.28;;;24.45;100.00
51297;BME280;37380;45.186;9.792;2023-09-18T08:42:45;100937.88;;;24.64;100.00
51297;BME280;37380;45.186;9.792;2023-09-18T08:45:27;100888.66;;;24.28;100.00
51297;BME280;37380;45.186;9.792;2023-09-18T08:47:58;100962.81;;;24.63;100.00
51297;BME280;37380;45.186;9.792;2023-09-18T08:50:27;100857.03;;;23.52;100.00
51297;BME280;37380;45.186;9.792;2023-09-18T08:52:56;100880.72;;;23.16;100.00
51297;BME280;37380;45.186;9.792;2023-09-18T08:55:24;100923.16;;;23.30;100.00
51297;BME280;37380;45.186;9.792;2023-09-18T08:57:53;100952.28;;;23.45;100.00
51297;BME280;37380;45.186;9.792;2023-09-18T09:00:21;100951.72;;;23.22;100.00
51297;BME280;37380;45.186;9.792;2023-09-18T09:02:54;100932.22;;;23.15;100.00
51297;BME280;37380;45.186;9.792;2023-09-18T09:05:56;100962.56;;;23.08;100.00
51297;BME280;37380;45.186;9.792;2023-09-18T09:08:57;100925.78;;;22.62;100.00
51297;BME280;37380;45.186;9.792;2023-09-18T09:11:58;100928.50;;;22.56;100.00
51297;BME280;37380;45.186;9.792;2023-09-18T09:15:02;100931.91;;;22.70;100.00
51297;BME280;37380;45.186;9.792;2023-09-18T09:17:31;100882.66;;;22.29;100.00
51297;BME280;37380;45.186;9.792;2023-09-18T09:20:08;100892.53;;;22.18;100.00
51297;BME280;37380;45.186;9.792;2023-09-18T09:22:41;100907.28;;;22.50;100.00
51297;BME280;37380;45.186;9.792;2023-09-18T09:25:35;100925.59;;;22.77;100.00
51297;BME280;37380;45.186;9.792;2023-09-18T09:28:05;100840.16;;;22.19;100.00
51297;BME280;37380;45.186;9.792;2023-09-18T09:30:34;100899.03;;;22.71;100.00
51297;BME280;37380;45.186;9.792;2023-09-18T09:33:06;100819.44;;;22.45;100.00
51297;BME280;37380;45.186;9.792;2023-09-18T09:35:41;100912.38;;;23.38;100.00
51297;BME280;37380;45.186;9.792;2023-09-18T09:38:42;100918.97;;;23.72;100.00
51297;BME280;37380;45.186;9.792;2023-09-18T09:41:35;100861.03;;;23.81;100.00
51297;BME280;37380;45.186;9.792;2023-09-18T09:44:05;100881.34;;;23.89;100.00
51297;BME280;37380;45.186;9.792;2023-09-18T09:46:32;100905.00;;;24.59;100.00
51297;BME280;37380;45.186;9.792;2023-09-18T09:49:01;100912.06;;;25.05;100.00
51297;BME280;37380;45.186;9.792;2023-09-18T09:51:29;100894.28;;;25.02;100.00
51297;BME280;37380;45.186;9.792;2023-09-18T09:53:57;100904.69;;;25.18;100.00
51297;BME280;37380;45.186;9.792;2023-09-18T09:59:11;100871.09;;;25.03;100.00
51297;BME280;37380;45.186;9.792;2023-09-18T10:01:46;100908.31;;;25.52;100.00
51297;BME280;37380;45.186;9.792;2023-09-18T10:04:50;100873.06;;;25.35;100.00
51297;BME280;37380;45.186;9.792;2023-09-18T10:07:45;100867.56;;;25.41;100.00
51297;BME280;37380;45.186;9.792;2023-09-18T10:10:12;100835.28;;;25.10;100.00
51297;BME280;37380;45.186;9.792;2023-09-18T10:12:40;100872.19;;;25.35;100.00
51297;BME280;37380;45.186;9.792;2023-09-18T10:15:07;100870.47;;;25.68;100.00
51297;BME280;37380;45.186;9.792;2023-09-18T10:17:42;100901.13;;;26.26;100.00
51297;BME280;37380;45.186;9.792;2023-09-18T10:20:14;100889.41;;;26.63;100.00
51297;BME280;37380;45.186;9.792;2023-09-18T10:22:56;100855.59;;;25.93;100.00
51297;BME280;37380;45.186;9.792;2023-09-18T10:25:55;100903.84;;;26.59;100.00
51297;BME280;37380;45.186;9.792;2023-09-18T10:28:23;100923.66;;;26.52;100.00
51297;BME280;37380;45.186;9.792;2023-09-18T10:30:56;100877.72;;;26.66;100.00
51297;BME280;37380;45.186;9.792;2023-09-18T10:33:24;100924.28;;;26.93;100.00
51297;BME280;37380;45.186;9.792;2023-09-18T10:35:53;100911.53;;;27.01;100.00
51297;BME280;37380;45.186;9.792;2023-09-18T10:38:21;100889.50;;;26.91;100.00
51297;BME280;37380;45.186;9.792;2023-09-18T10:40:51;100876.22;;;26.55;100.00
51297;BME280;37380;45.186;9.792;2023-09-18T10:43:25;100911.25;;;26.80;100.00
51297;BME280;37380;45.186;9.792;2023-09-18T10:46:20;100857.75;;;26.45;100.00
51297;BME280;37380;45.186;9.792;2023-09-18T10:48:54;100896.44;;;26.67;100.00
51297;BME280;37380;45.186;9.792;2023-09-18T10:51:57;100885.38;;;26.79;100.00
51297;BME280;37380;45.186;9.792;2023-09-18T10:54:51;100779.53;;;26.32;100.00
51297;BME280;37380;45.186;9.792;2023-09-18T10:57:19;100812.03;;;26.19;100.00
51297;BME280;37380;45.186;9.792;2023-09-18T10:59:54;100871.53;;;26.93;100.00
51297;BME280;37380;45.186;9.792;2023-09-18T11:02:29;100806.28;;;26.33;100.00
51297;BME280;37380;45.186;9.792;2023-09-18T11:05:30;100873.88;;;27.04;100.00
51297;BME280;37380;45.186;9.792;2023-09-18T11:11:02;100880.19;;;26.40;100.00
51297;BME280;37380;45.186;9.792;2023-09-18T11:13:39;100840.72;;;26.47;100.00
51297;BME280;37380;45.186;9.792;2023-09-18T11:16:33;100801.44;;;26.46;100.00
51297;BME280;37380;45.186;9.792;2023-09-18T11:21:38;100852.16;;;27.13;100.00
51297;BME280;37380;45.186;9.792;2023-09-18T11:24:39;100849.69;;;26.77;100.00
51297;BME280;37380;45.186;9.792;2023-09-18T11:27:57;100779.41;;;26.96;100.00
51297;BME280;37380;45.186;9.792;2023-09-18T11:30:55;100799.31;;;26.59;100.00
51297;BME280;37380;45.186;9.792;2023-09-18T11:33:39;100848.00;;;27.86;100.00
51297;BME280;37380;45.186;9.792;2023-09-18T11:36:08;100869.22;;;27.10;100.00
51297;BME280;37380;45.186;9.792;2023-09-18T11:38:55;100871.09;;;27.37;100.00
51297;BME280;37380;45.186;9.792;2023-09-18T11:41:29;100866.31;;;27.18;100.00
51297;BME280;37380;45.186;9.792;2023-09-18T11:46:45;100875.13;;;27.23;100.00
51297;BME280;37380;45.186;9.792;2023-09-18T11:49:13;100813.44;;;27.75;100.00
51297;BME280;37380;45.186;9.792;2023-09-18T11:51:47;100860.22;;;27.68;100.00
51297;BME280;37380;45.186;9.792;2023-09-18T11:54:20;100828.16;;;27.37;100.00
51297;BME280;37380;45.186;9.792;2023-09-18T11:57:21;100814.13;;;27.28;100.00
51297;BME280;37380;45.186;9.792;2023-09-18T12:00:22;100785.63;;;26.96;100.00
51297;BME280;37380;45.186;9.792;2023-09-18T12:03:24;100846.72;;;27.16;100.00
51297;BME280;37380;45.186;9.792;2023-09-18T12:06:24;100828.06;;;26.54;100.00
51297;BME280;37380;45.186;9.792;2023-09-18T12:09:12;100853.00;;;26.85;100.00
51297;BME280;37380;45.186;9.792;2023-09-18T12:11:41;100853.53;;;26.67;100.00
51297;BME280;37380;45.186;9.792;2023-09-18T12:14:09;100793.47;;;26.45;100.00
51297;BME280;37380;45.186;9.792;2023-09-18T12:16:40;100830.72;;;26.54;100.00
51297;BME280;37380;45.186;9.792;2023-09-18T12:19:07;100786.69;;;26.31;100.00
51297;BME280;37380;45.186;9.792;2023-09-18T12:21:46;100779.59;;;25.97;100.00
51297;BME280;37380;45.186;9.792;2023-09-18T12:24:24;100820.25;;;26.45;100.00
51297;BME280;37380;45.186;9.792;2023-09-18T12:26:58;100787.94;;;26.19;100.00
51297;BME280;37380;45.186;9.792;2023-09-18T12:29:52;100771.47;;;26.02;100.00
51297;BME280;37380;45.186;9.792;2023-09-18T12:32:26;100816.28;;;26.27;100.00
51297;BME280;37380;45.186;9.792;2023-09-18T12:35:28;100786.97;;;26.22;100.00
51297;BME280;37380;45.186;9.792;2023-09-18T12:38:16;100747.13;;;25.77;100.00
51297;BME280;37380;45.186;9.792;2023-09-18T12:40:46;100756.00;;;25.79;100.00
51297;BME280;37380;45.186;9.792;2023-09-18T12:43:16;100821.47;;;26.02;100.00
51297;BME280;37380;45.186;9.792;2023-09-18T12:45:44;100778.81;;;25.94;100.00
51297;BME280;37380;45.186;9.792;2023-09-18T12:48:13;100753.16;;;25.52;100.00
51297;BME280;37380;45.186;9.792;2023-09-18T12:50:52;100793.25;;;25.88;100.00
51297;BME280;37380;45.186;9.792;2023-09-18T12:53:59;100790.44;;;25.59;100.00
51297;BME280;37380;45.186;9.792;2023-09-18T12:57:00;100763.78;;;25.56;100.00
51297;BME280;37380;45.186;9.792;2023-09-18T13:00:09;100706.09;;;25.10;100.00
51297;BME280;37380;45.186;9.792;2023-09-18T13:03:14;100789.31;;;25.67;100.00
51297;BME280;37380;45.186;9.792;2023-09-18T13:06:18;100777.91;;;25.61;100.00
51297;BME280;37380;45.186;9.792;2023-09-18T13:09:18;100778.31;;;25.45;100.00
51297;BME280;37380;45.186;9.792;2023-09-18T13:11:56;100746.50;;;25.35;100.00
51297;BME280;37380;45.186;9.792;2023-09-18T13:14:24;100767.00;;;25.34;100.00
51297;BME280;37380;45.186;9.792;2023-09-18T13:16:52;100698.28;;;25.00;100.00
51297;BME280;37380;45.186;9.792;2023-09-18T13:19:19;100739.59;;;25.26;100.00
51297;BME280;37380;45.186;9.792;2023-09-18T13:21:50;100758.06;;;25.35;100.00
51297;BME280;37380;45.186;9.792;2023-09-18T13:26:53;100752.47;;;25.08;100.00
51297;BME280;37380;45.186;9.792;2023-09-18T13:29:29;100710.22;;;24.87;100.00
51297;BME280;37380;45.186;9.792;2023-09-18T13:32:03;100689.50;;;24.59;100.00
51297;BME280;37380;45.186;9.792;2023-09-18T13:35:04;100739.47;;;24.93;100.00
51297;BME280;37380;45.186;9.792;2023-09-18T13:38:01;100732.00;;;25.07;100.00
51297;BME280;37380;45.186;9.792;2023-09-18T13:40:32;100734.84;;;25.00;100.00
51297;BME280;37380;45.186;9.792;2023-09-18T13:43:06;100716.69;;;25.13;100.00
51297;BME280;37380;45.186;9.792;2023-09-18T13:45:34;100718.19;;;25.26;100.00